Marlborough, Connecticut
Current Conditions -  °F | °C
As of 5:53 PM on Monday 24 Nov 2014 (Local Time) from KHFD Reporting Station
Overcast Overcast  
Wind Chill: 61°   Ceiling: 1200
Heat Index: 61°   Visibility: 10mi
Dew Point: 56°   Wind: 13mph
Humidity: 83%   Direction: 200°SSW
Pressure: 29.63"   Gusts: 24mph
Location:  41.63°N, 72.46°W
Report Text: KHFD 242253Z 20011G21KT 10SM OVC012 16/13 A2963 RMK AO2 SLP034 T01610133
Loading
Personal Weather Stations






























Interactive Weather Map New forecast layout! Learn more

10-Day Weather Forecast

Advertisements
Track Severe Weather on mobile